Taylor Mines, Kentucky
Current Conditions -  °F | °C
As of 2:35 PM on Monday 26 Jan 2015 (Local Time) from K2I0 Reporting Station
Overcast Overcast  
Wind Chill: 27°   Ceiling: 6000
Heat Index: 35°   Visibility: 10mi
Dew Point: 28°   Wind: 9mph
Humidity: 76%   Direction: 290°WNW
Pressure: 29.97"   Gusts: NA
Location:  37.3559°N, 86.8747°W
Report Text: K2I0 262035Z AUTO 29008KT 10SM SCT022 BKN060 OVC090 01/M02 A2997 RMK AO2 T00141025
Loading
Personal Weather Stations






























Interactive Weather Map New forecast layout! Learn more

10-Day Weather Forecast

Advertisements
Track Severe Weather on mobile